createdAt,value
2023-02-06T00:04:27.438Z,97915.44
2023-02-06T00:14:31.348Z,97917.28
2023-02-06T00:24:33.782Z,97931.47
2023-02-06T00:34:37.951Z,97922.22
2023-02-06T00:44:40.496Z,97921.69
2023-02-06T00:54:44.430Z,97903.94
2023-02-06T01:04:46.907Z,97911.75
2023-02-06T01:14:50.766Z,97926.53
2023-02-06T01:24:53.288Z,97913.34
2023-02-06T01:34:57.280Z,97920.31
2023-02-06T01:45:32.834Z,97916.81
2023-02-06T01:55:38.376Z,97910.53
2023-02-06T02:05:41.455Z,97908.28
2023-02-06T02:15:53.832Z,97911.53
2023-02-06T02:26:14.874Z,97908.03
2023-02-06T02:36:21.197Z,97911.53
2023-02-06T02:46:25.454Z,97896.44
2023-02-06T02:56:29.431Z,97894.00
2023-02-06T03:06:40.286Z,97907.72
2023-02-06T03:16:47.275Z,97895.91
2023-02-06T03:26:51.214Z,97889.97
2023-02-06T03:36:55.472Z,97881.91
2023-02-06T03:46:59.714Z,97894.03
2023-02-06T03:57:05.082Z,97885.69
2023-02-06T04:07:12.797Z,97891.34
2023-02-06T04:17:28.180Z,97891.91
2023-02-06T04:27:39.295Z,97894.63
2023-02-06T04:37:43.162Z,97894.88
2023-02-06T04:47:49.369Z,97890.44
2023-02-06T04:57:53.312Z,97884.47
2023-02-06T05:07:56.189Z,97881.34
2023-02-06T05:18:00.284Z,97889.88
2023-02-06T05:28:02.874Z,97896.72
2023-02-06T05:38:06.970Z,97899.78
2023-02-06T05:48:09.489Z,97887.75
2023-02-06T05:58:13.534Z,97897.84
2023-02-06T06:08:16.103Z,97901.13
2023-02-06T06:18:20.394Z,97883.09
2023-02-06T06:28:23.176Z,97895.16
2023-02-06T06:38:27.042Z,97915.69
2023-02-06T06:48:29.764Z,97919.44
2023-02-06T06:58:33.720Z,97919.09
2023-02-06T07:08:41.673Z,97917.19
2023-02-06T07:18:45.492Z,97910.00
2023-02-06T07:28:49.724Z,97929.41
2023-02-06T07:38:53.525Z,97928.00
2023-02-06T07:48:56.342Z,97927.84
2023-02-06T07:59:00.076Z,97915.84
2023-02-06T08:09:02.693Z,97930.38
2023-02-06T08:19:10.728Z,97915.94
2023-02-06T08:29:14.329Z,97917.06
2023-02-06T08:39:19.154Z,97909.53
2023-02-06T08:49:22.424Z,97914.19
2023-02-06T08:59:26.682Z,97917.28
2023-02-06T09:09:29.164Z,97915.97
2023-02-06T09:19:33.005Z,97909.03
2023-02-06T09:29:35.597Z,97910.88
2023-02-06T09:39:39.391Z,97902.34
2023-02-06T09:49:44.555Z,97903.94
2023-02-06T09:59:50.350Z,97891.63
2023-02-06T10:09:55.235Z,97875.66
2023-02-06T10:20:03.188Z,97866.41
2023-02-06T10:30:05.763Z,97860.72
2023-02-06T10:40:21.179Z,97841.84
2023-02-06T10:50:26.886Z,97836.22
2023-02-06T11:00:31.261Z,97828.84
2023-02-06T11:10:33.846Z,97824.03
2023-02-06T11:20:39.258Z,97832.03
2023-02-06T11:30:42.822Z,97830.72
2023-02-06T11:40:54.670Z,97806.44
2023-02-06T11:50:57.091Z,97804.75
2023-02-06T12:01:02.734Z,97798.38
2023-02-06T12:11:06.799Z,97783.63
2023-02-06T12:21:14.178Z,97776.47
2023-02-06T12:31:20.310Z,97765.81
2023-02-06T12:41:33.639Z,97745.38
2023-02-06T12:51:40.300Z,97762.41
2023-02-06T13:01:53.875Z,97755.06
2023-02-06T13:12:07.100Z,97746.78
2023-02-06T13:22:32.286Z,97727.56
2023-02-06T13:32:42.961Z,97734.00
2023-02-06T13:42:50.618Z,97730.94
2023-02-06T13:53:01.232Z,97725.38
2023-02-06T14:03:07.371Z,97725.53
2023-02-06T14:13:16.606Z,97734.53
2023-02-06T14:23:28.503Z,97728.00
2023-02-06T14:33:45.833Z,97728.44
2023-02-06T14:43:51.469Z,97729.66
2023-02-06T14:53:57.200Z,97740.47
2023-02-06T15:04:10.944Z,97745.09
2023-02-06T15:14:20.953Z,97745.28
2023-02-06T15:24:36.748Z,97738.34
2023-02-06T15:34:39.204Z,97745.97
2023-02-06T15:44:43.384Z,97722.84
2023-02-06T15:54:57.425Z,97727.19
2023-02-06T16:05:02.454Z,97738.72
2023-02-06T16:15:22.557Z,97745.47
2023-02-06T16:25:31.392Z,97755.94
2023-02-06T16:35:33.833Z,97750.16
2023-02-06T16:45:37.674Z,97755.84
2023-02-06T16:55:43.415Z,97755.09
2023-02-06T17:05:49.045Z,97742.84
2023-02-06T17:15:53.123Z,97740.22
2023-02-06T17:25:57.115Z,97722.56
2023-02-06T17:35:59.629Z,97712.03
2023-02-06T17:46:03.442Z,97727.63
2023-02-06T17:56:06.598Z,97714.22
2023-02-06T18:06:11.029Z,97707.72
2023-02-06T18:16:14.868Z,97703.03
2023-02-06T18:26:19.005Z,97693.66
2023-02-06T18:36:21.708Z,97700.38
2023-02-06T18:46:25.568Z,97697.47
2023-02-06T18:56:28.029Z,97700.28
2023-02-06T19:06:35.310Z,97679.84
2023-02-06T19:16:38.643Z,97680.06
2023-02-06T19:26:43.152Z,97671.94
2023-02-06T19:36:45.590Z,97680.34
2023-02-06T19:46:49.486Z,97673.44
2023-02-06T19:56:51.994Z,97667.22
2023-02-06T20:06:55.870Z,97670.53
2023-02-06T20:16:58.419Z,97676.78
2023-02-06T20:27:03.273Z,97673.25
2023-02-06T20:37:05.723Z,97672.53
2023-02-06T20:47:09.517Z,97657.72
2023-02-06T20:57:13.177Z,97662.19
2023-02-06T21:07:19.338Z,97652.53
2023-02-06T21:17:21.776Z,97642.31
2023-02-06T21:27:25.589Z,97631.56
2023-02-06T21:37:28.570Z,97620.59
2023-02-06T21:47:32.680Z,97623.25
2023-02-06T21:57:35.237Z,97628.34
2023-02-06T22:07:39.259Z,97628.34
2023-02-06T22:17:41.743Z,97619.00
2023-02-06T22:27:45.799Z,97615.72
2023-02-06T22:37:48.275Z,97617.25
2023-02-06T22:47:52.072Z,97630.31
2023-02-06T22:57:54.526Z,97620.44
2023-02-06T23:07:58.714Z,97616.59
2023-02-06T23:18:01.332Z,97624.63
2023-02-06T23:28:05.472Z,97639.19
2023-02-06T23:38:09.644Z,97664.38
2023-02-06T23:48:13.492Z,97688.59
2023-02-06T23:58:16.084Z,97702.22
